• Join FlightAware (Why Join?)
  • Login
  • US Flag 
03:00PM EDT


 

Airport Tracker/Info


-or-


 

Live Flight TrackerFlight Track Log ✈ VH-WSF ✈ 24-Apr-2013 ✈ YDBY / DRB - YBRM / BME

Flight Track Log - Related Links

Times and Time Zones

All times are in EDT time to prevent confusion due to time zone crossing. See the VH-WSF flight status page for this flight to view local times or setup timezone preferences in your user account.

Time Position Orientation Groundspeed Altitude Reporting Facility
EDT Latitude Longitude Course Direction KTS MPH feet Rate Location/Type
03:43AM -17.4076 123.5723 360° North 300  Level Aus ATC (Calculated)
03:44AM -17.4076 123.5723 360° North 300  Level Aus ATC (Calculated)
03:44AM -17.4076 123.5723 247° West 300  Level Aus ATC (Calculated)
03:46AM -17.4247 123.5303 247° West  Level FlightAware Approximate
03:46AM -17.4438 123.4834 247° West 300  Level Aus ATC (Calculated)
03:47AM -17.4800 123.3944 67° East 300  Level Aus ATC (Calculated)
03:48AM -17.4671 123.4262 247° West  Level FlightAware Approximate
03:49AM -17.4968 123.3531 247° West  Level FlightAware Approximate
03:49AM -17.5161 123.3055 360° North 300  Level Aus ATC (Calculated)
03:49AM -17.5161 123.3055 247° West 300  Level Aus ATC (Calculated)
03:51AM -17.5388 123.2495 247° West  Level FlightAware Approximate
03:52AM -17.5536 123.2130 247° West  Level FlightAware Approximate
03:53AM -17.5683 123.1765 247° West  Level FlightAware Approximate
03:54AM -17.5831 123.1400 247° West  Level FlightAware Approximate
03:55AM -17.5979 123.1035 247° West  Level FlightAware Approximate
03:56AM -17.6126 123.0670 247° West  Level FlightAware Approximate
03:56AM -17.6242 123.0384 247° West 300  Level Aus ATC (Calculated)
03:58AM -17.6532 122.9666 247° West  Level FlightAware Approximate
03:59AM -17.6679 122.9300 247° West  Level FlightAware Approximate
04:00AM -17.6827 122.8935 247° West  Level FlightAware Approximate
04:01AM -17.6974 122.8569 247° West  Level FlightAware Approximate
04:01AM -17.7319 122.7710 247° West 300  Level Aus ATC (Calculated)
04:03AM -17.7549 122.7137 247° West  Level FlightAware Approximate
04:04AM -17.7696 122.6771 247° West  Level FlightAware Approximate
04:05AM -17.7843 122.6405 247° West  Level FlightAware Approximate
04:06AM -17.7990 122.6039 247° West  Level FlightAware Approximate
04:07AM -17.8137 122.5673 247° West  Level FlightAware Approximate
04:08AM -17.8283 122.5307 247° West  Level FlightAware Approximate
04:08AM -17.8393 122.5033 247° West 300  Level Aus ATC (Calculated)
04:09AM -17.8430 122.4941 247° West  Level FlightAware Approximate
04:10AM -17.8561 122.4612 247° West  Level FlightAware Approximate
04:11AM -17.8708 122.4246 247° West  Level FlightAware Approximate
04:11AM -17.9107 122.3247 360° North 300  Level Aus ATC (Calculated)
04:12AM -17.9107 122.3247 360° North 300  Level Aus ATC (Calculated)
04:12AM -17.9107 122.3247 247° West 300  Level Aus ATC (Calculated)
04:13AM -17.9253 122.2880 247° West  Level FlightAware Approximate
04:13AM -17.9463 122.2353 360° North 300  Level Aus ATC (Calculated)
04:13AM -17.9463 122.2353 67° East 300  Level Aus ATC (Calculated)
04:14AM -17.9277 122.2819 247° West  Level FlightAware Approximate
04:15AM -17.9447 122.2317 270° West  Level Estimated
04:16AM -17.9447 122.2317 115° Southeast  Level Estimated
04:17AM -17.9447 122.2317 115° Southeast  Level Estimated
04:18AM -17.9447 122.2317 115° Southeast  Level Estimated
04:19AM -17.9447 122.2317 North  Level Estimated
04:20AM -17.9447 122.2317 115° Southeast  Level Estimated
04:21AM -17.9447 122.2317 115° Southeast  Level Estimated
04:22AM -17.9463 122.2353 247° West  Level FlightAware Approximate
04:23AM -17.9447 122.2317 247° West  Level Estimated
04:24AM -17.9463 122.2353 247° West  Level FlightAware Approximate
04:25AM -17.9447 122.2317 247° West  Level Estimated
04:26AM -17.9463 122.2353 247° West  Level FlightAware Approximate
04:27AM -17.9447 122.2317 247° West  Level Estimated
04:28AM -17.9463 122.2353 247° West  Level FlightAware Approximate
04:29AM -17.9447 122.2317 247° West  Level Estimated
04:30AM -17.9463 122.2353 247° West  Level FlightAware Approximate
04:31AM -17.9447 122.2317 247° West  Level Estimated
04:32AM -17.9463 122.2353 247° West  Level FlightAware Approximate
04:33AM -17.9447 122.2317 247° West  Level Estimated
04:34AM -17.9463 122.2353 247° West  Level FlightAware Approximate
04:35AM -17.9447 122.2317 247° West  Level Estimated
04:36AM -17.9463 122.2353 247° West  Level FlightAware Approximate
04:37AM -17.9447 122.2317 247° West  Level Estimated